Time;durP1;ratioP1;P1;durP2;ratioP2;P2;SDS_P1;SDS_P2;PMS_P1;PMS_P2;Temp;Humidity;BMP_temperature;BMP_pressure;BME280_temperature;BME280_humidity;BME280_pressure;Samples;Min_cycle;Max_cycle;Signal;HPM_P1;HPM_P2
2022/02/22 00:01:40;;;;;;;;;13.33;7.67;;;;;10.16;64.29;102069.59;5059753;28;45845;-76
2022/02/22 00:04:05;;;;;;;;;7.00;5.00;;;;;10.22;64.28;102082.09;5059549;28;45500;-76
2022/02/22 00:06:30;;;;;;;;;14.00;7.00;;;;;10.13;64.64;102079.19;5059247;28;46613;-76
2022/02/22 00:08:56;;;;;;;;;13.00;4.67;;;;;10.13;64.72;102088.00;5059609;28;45344;-76
2022/02/22 00:11:25;;;;;;;;;10.67;6.00;;;;;10.04;64.77;102079.78;5059741;28;45315;-77
2022/02/22 00:13:51;;;;;;;;;16.50;7.00;;;;;10.07;64.36;102081.63;5064955;28;45540;-76
2022/02/22 00:16:16;;;;;;;;;10.00;5.33;;;;;10.00;64.72;102076.97;5059264;28;46514;-76
2022/02/22 00:18:42;;;;;;;;;15.50;6.00;;;;;10.03;64.87;102080.63;5069394;28;46196;-76
2022/02/22 00:21:08;;;;;;;;;11.67;4.00;;;;;10.00;65.22;102093.69;5076764;27;45322;-76
2022/02/22 00:23:33;;;;;;;;;15.00;7.00;;;;;9.95;66.27;102096.19;5068628;27;45473;-76
2022/02/22 00:25:59;;;;;;;;;22.00;6.75;;;;;9.96;65.54;102092.72;5058915;28;47382;-76
2022/02/22 00:28:24;;;;;;;;;15.00;7.00;;;;;9.94;65.38;102082.94;5059212;28;45283;-76
2022/02/22 00:30:50;;;;;;;;;15.33;3.33;;;;;9.91;65.27;102085.50;5059263;28;45291;-76
2022/02/22 00:33:15;;;;;;;;;12.00;4.67;;;;;9.93;65.46;102089.97;5059175;28;45431;-76
2022/02/22 00:35:41;;;;;;;;;7.33;6.33;;;;;9.93;65.53;102095.25;5059142;28;46370;-76
2022/02/22 00:38:06;;;;;;;;;13.75;4.75;;;;;9.91;65.71;102096.94;5059129;28;45389;-76
2022/02/22 00:40:31;;;;;;;;;9.00;6.00;;;;;9.90;65.46;102091.59;5058959;28;45985;-76
2022/02/22 00:42:57;;;;;;;;;10.33;5.33;;;;;9.82;65.65;102074.63;5059456;28;45490;-76
2022/02/22 00:45:22;;;;;;;;;18.33;6.67;;;;;9.86;65.63;102087.97;5058715;28;46130;-76
2022/02/22 00:47:48;;;;;;;;;16.33;6.33;;;;;9.84;65.74;102089.66;5057732;28;49830;-76
2022/02/22 00:50:13;;;;;;;;;11.67;6.33;;;;;9.85;65.53;102086.16;5057773;28;45725;-76
2022/02/22 00:52:39;;;;;;;;;16.67;8.00;;;;;9.83;66.11;102085.22;5059023;28;45524;-76
2022/02/22 00:55:04;;;;;;;;;16.67;8.00;;;;;9.81;65.90;102094.84;5058663;28;46895;-76
2022/02/22 00:57:30;;;;;;;;;15.67;7.33;;;;;9.81;66.27;102097.47;5058881;28;45246;-76
2022/02/22 00:59:55;;;;;;;;;12.67;6.67;;;;;9.80;65.93;102098.31;5058834;28;45264;-76
2022/02/22 01:02:21;;;;;;;;;13.33;8.33;;;;;9.77;65.96;102095.56;5058780;28;45847;-77
2022/02/22 01:04:46;;;;;;;;;8.00;5.33;;;;;9.81;65.96;102100.09;5058442;28;46393;-76
2022/02/22 01:07:16;;;;;;;;;16.33;4.00;;;;;9.80;66.27;102116.78;5058389;28;45406;-76
2022/02/22 01:09:46;;;;;;;;;6.67;4.67;;;;;9.80;66.07;102124.69;5058726;28;45225;-77
2022/02/22 01:12:11;;;;;;;;;18.50;7.00;;;;;9.77;65.88;102113.13;5063880;28;45235;-76
2022/02/22 01:14:37;;;;;;;;;13.67;8.00;;;;;9.80;66.01;102105.31;5058601;28;46509;-76
2022/02/22 01:17:03;;;;;;;;;17.33;6.67;;;;;9.80;66.12;102116.78;5058700;28;45309;-76
2022/02/22 01:19:28;;;;;;;;;14.00;6.75;;;;;9.78;66.03;102123.72;5076176;28;45272;-76
2022/02/22 01:21:54;;;;;;;;;5.00;3.33;;;;;9.75;65.95;102131.56;5074288;28;49367;-76
2022/02/22 01:24:19;;;;;;;;;18.00;6.00;;;;;9.74;66.00;102135.00;5060512;27;46356;-76
2022/02/22 01:26:45;;;;;;;;;17.50;8.00;;;;;9.74;66.09;102134.13;5058087;28;47094;-76
2022/02/22 01:29:10;;;;;;;;;12.33;6.00;;;;;9.71;66.30;102130.53;5058478;28;45274;-76
2022/02/22 01:31:36;;;;;;;;;18.00;6.00;;;;;9.67;66.68;102130.38;5058503;28;45485;-76
2022/02/22 01:34:01;;;;;;;;;15.75;7.25;;;;;9.66;66.25;102128.59;5057775;28;46442;-76
2022/02/22 01:36:27;;;;;;;;;12.50;6.50;;;;;9.60;66.61;102113.44;5058143;28;45238;-76
2022/02/22 01:38:53;;;;;;;;;9.00;6.50;;;;;9.62;66.52;102122.28;5058005;27;45169;-76
2022/02/22 01:41:21;;;;;;;;;20.67;7.00;;;;;9.58;66.35;102130.03;5058412;28;45457;-76
2022/02/22 01:43:47;;;;;;;;;17.33;7.00;;;;;9.53;66.67;102121.94;5057890;28;46643;-76
2022/02/22 01:46:12;;;;;;;;;12.00;6.00;;;;;9.47;66.85;102115.56;5057939;28;45430;-76
2022/02/22 01:48:38;;;;;;;;;11.25;5.00;;;;;9.46;67.01;102135.78;5057957;28;45307;-76
2022/02/22 01:51:03;;;;;;;;;17.25;6.75;;;;;9.44;66.91;102121.66;5058307;28;45284;-76
2022/02/22 01:53:29;;;;;;;;;10.67;5.33;;;;;9.44;67.01;102124.28;5057777;28;46530;-77
2022/02/22 01:55:54;;;;;;;;;17.00;6.00;;;;;9.43;67.11;102122.50;5058109;28;45293;-76
2022/02/22 01:58:19;;;;;;;;;12.50;6.00;;;;;9.40;67.14;102115.34;5057500;28;46192;-75
2022/02/22 02:00:46;;;;;;;;;14.25;6.00;;;;;9.37;67.71;102114.34;5056521;28;45568;-76
2022/02/22 02:03:15;;;;;;;;;12.33;6.00;;;;;9.34;67.19;102111.59;5057453;28;46649;-76
2022/02/22 02:05:40;;;;;;;;;14.00;8.25;;;;;9.32;67.50;102108.00;5056557;28;46440;-76
2022/02/22 02:08:06;;;;;;;;;17.00;6.00;;;;;9.31;67.52;102120.28;5057409;28;45283;-76
2022/02/22 02:10:31;;;;;;;;;24.00;6.75;;;;;9.22;67.43;102113.81;5057812;28;45334;-76
2022/02/22 02:12:57;;;;;;;;;16.50;6.50;;;;;9.25;67.87;102116.53;5061662;28;46412;-76
2022/02/22 02:15:22;;;;;;;;;19.75;6.00;;;;;9.27;67.97;102122.75;5057631;28;45354;-76
2022/02/22 02:17:47;;;;;;;;;8.50;6.00;;;;;9.25;67.76;102122.69;5060873;27;45303;-76
2022/02/22 02:20:13;;;;;;;;;14.25;7.25;;;;;9.24;67.54;102131.44;5077886;27;45548;-76
2022/02/22 02:22:39;;;;;;;;;14.25;8.00;;;;;9.23;67.72;102127.03;5070926;27;55731;-76
2022/02/22 02:25:05;;;;;;;;;13.50;5.00;;;;;9.24;67.92;102149.00;5057418;28;45402;-76
2022/02/22 02:27:31;;;;;;;;;8.00;6.75;;;;;9.25;67.93;102150.78;5056036;28;45253;-76
2022/02/22 02:29:59;;;;;;;;;9.50;8.00;;;;;9.21;67.73;102128.69;5057566;28;45205;-76
2022/02/22 02:32:25;;;;;;;;;14.25;6.75;;;;;9.23;67.61;102142.84;5057169;28;47223;-76
2022/02/22 02:34:51;;;;;;;;;13.75;6.75;;;;;9.23;67.83;102134.94;5057394;28;45447;-76
2022/02/22 02:37:16;;;;;;;;;11.75;6.25;;;;;9.21;67.86;102135.69;5075528;28;45257;-76
2022/02/22 02:39:42;;;;;;;;;14.33;6.00;;;;;9.22;67.77;102138.41;5077679;27;45524;-76
2022/02/22 02:42:07;;;;;;;;;11.00;6.00;;;;;9.15;67.60;102126.72;5194133;22;46141;-76
2022/02/22 02:44:32;;;;;;;;;14.00;4.50;;;;;9.14;67.42;102132.84;5088081;27;48591;-75
2022/02/22 02:46:58;;;;;;;;;12.00;4.00;;;;;9.16;67.79;102138.16;5080504;27;45317;-76
2022/02/22 02:49:23;;;;;;;;;12.75;8.50;;;;;9.11;67.71;102145.91;5059509;28;45521;-76
2022/02/22 02:51:49;;;;;;;;;19.50;5.75;;;;;9.12;67.76;102160.00;5083082;27;45770;-75
2022/02/22 02:54:14;;;;;;;;;10.00;3.75;;;;;9.03;67.90;102147.34;5077283;28;45220;-75
2022/02/22 02:56:40;;;;;;;;;17.50;5.00;;;;;8.99;68.42;102157.69;5077384;28;45437;-75
2022/02/22 02:59:07;;;;;;;;;6.33;4.33;;;;;9.02;67.91;102173.63;5077554;28;45644;-75
2022/02/22 03:01:34;;;;;;;;;16.00;6.00;;;;;9.01;68.10;102171.84;5077197;28;45832;-75
2022/02/22 03:04:00;;;;;;;;;15.00;6.00;;;;;9.00;67.86;102170.03;5042293;28;46036;-75
2022/02/22 03:06:25;;;;;;;;;14.00;8.25;;;;;8.99;67.69;102169.13;5081994;27;45422;-75
2022/02/22 03:08:50;;;;;;;;;15.75;6.25;;;;;8.93;68.04;102148.72;5069475;28;45563;-75
2022/02/22 03:11:16;;;;;;;;;17.25;7.00;;;;;8.91;68.05;102150.41;5077081;28;50982;-75
2022/02/22 03:13:42;;;;;;;;;20.33;6.00;;;;;8.97;68.27;102160.28;5092408;27;45275;-76
2022/02/22 03:16:08;;;;;;;;;12.75;6.00;;;;;8.98;68.02;102162.06;5079459;27;45440;-75
2022/02/22 03:18:34;;;;;;;;;11.75;6.25;;;;;8.92;68.09;102154.84;5086349;27;45226;-75
2022/02/22 03:20:59;;;;;;;;;20.50;7.00;;;;;8.95;68.32;102164.59;5086576;27;46688;-75
2022/02/22 03:23:24;;;;;;;;;15.50;8.75;;;;;8.98;68.24;102175.25;5097917;27;49201;-75
2022/02/22 03:25:50;;;;;;;;;13.75;6.00;;;;;8.97;68.10;102173.47;5083480;27;45910;-75
2022/02/22 03:28:16;;;;;;;;;10.75;5.00;;;;;8.98;68.08;102177.00;5080689;28;45223;-75
2022/02/22 03:30:41;;;;;;;;;12.25;7.50;;;;;8.97;68.17;102175.19;5080039;28;46640;-75
2022/02/22 03:33:08;;;;;;;;;23.25;8.00;;;;;8.95;68.69;102166.31;5080492;28;45483;-76
2022/02/22 03:35:34;;;;;;;;;9.75;4.00;;;;;8.92;68.68;102175.00;5087483;27;45460;-75
2022/02/22 03:37:59;;;;;;;;;7.50;5.25;;;;;8.90;68.37;102177.59;5080643;28;45168;-75
2022/02/22 03:40:24;;;;;;;;;11.75;6.75;;;;;8.84;68.88;102158.00;5080189;28;46533;-76
2022/02/22 03:42:50;;;;;;;;;15.25;7.25;;;;;8.86;68.17;102149.34;5080202;28;45319;-75
2022/02/22 03:45:15;;;;;;;;;18.50;7.50;;;;;8.89;68.56;102152.09;5079858;28;46790;-76
2022/02/22 03:47:41;;;;;;;;;15.75;6.50;;;;;8.86;68.31;102149.34;5080470;28;45220;-76
2022/02/22 03:50:08;;;;;;;;;11.00;6.50;;;;;8.88;68.42;102160.81;5080017;28;46181;-76
2022/02/22 03:52:34;;;;;;;;;9.75;7.50;;;;;8.89;68.26;102156.44;5079929;27;45340;-76
2022/02/22 03:54:59;;;;;;;;;13.25;7.00;;;;;8.87;68.38;102150.22;5080066;28;45476;-76
2022/02/22 03:57:24;;;;;;;;;6.75;5.00;;;;;8.90;68.22;102158.25;5080382;28;45467;-76
2022/02/22 03:59:50;;;;;;;;;14.75;5.25;;;;;8.89;68.59;102146.84;5079800;28;47269;-76
2022/02/22 04:02:15;;;;;;;;;24.75;6.25;;;;;8.89;68.48;102141.56;5079825;28;56762;-76
2022/02/22 04:04:41;;;;;;;;;13.50;7.00;;;;;8.91;68.47;102150.41;5080003;28;45781;-76
2022/02/22 04:07:06;;;;;;;;;12.50;6.25;;;;;8.92;68.41;102139.03;5089250;27;45141;-75
2022/02/22 04:09:32;;;;;;;;;13.00;5.75;;;;;8.93;68.32;102156.63;5084351;27;47678;-75
2022/02/22 04:11:57;;;;;;;;;22.00;7.25;;;;;8.89;68.53;102140.63;5083723;27;48621;-76
2022/02/22 04:14:22;;;;;;;;;19.50;6.75;;;;;8.96;68.17;102158.50;5097164;27;45171;-75
2022/02/22 04:16:48;;;;;;;;;17.25;7.75;;;;;8.98;68.25;102158.53;5082506;27;45470;-75
2022/02/22 04:19:13;;;;;;;;;15.00;6.00;;;;;9.01;68.48;102169.22;5079208;27;46678;-76
2022/02/22 04:21:39;;;;;;;;;11.75;6.00;;;;;8.98;68.35;102162.06;5094968;27;45461;-76
2022/02/22 04:24:05;;;;;;;;;17.75;10.25;;;;;9.06;68.10;102175.56;5079414;27;45276;-76
2022/02/22 04:26:30;;;;;;;;;18.25;7.25;;;;;9.10;68.25;102172.19;5079789;28;45477;-76
2022/02/22 04:29:00;;;;;;;;;15.25;6.25;;;;;9.10;68.34;102182.72;5079454;28;46248;-76
2022/02/22 04:31:28;;;;;;;;;16.00;7.00;;;;;9.16;68.21;102182.94;5079558;28;45307;-76
2022/02/22 04:33:53;;;;;;;;;15.25;10.25;;;;;9.19;68.13;102183.09;5079445;28;45454;-75
2022/02/22 04:36:19;;;;;;;;;15.00;7.25;;;;;9.23;67.96;102185.00;5077637;27;45265;-75
2022/02/22 04:38:44;;;;;;;;;17.25;8.75;;;;;9.21;68.26;102177.88;5099139;27;56778;-76
2022/02/22 04:41:10;;;;;;;;;14.00;7.25;;;;;9.22;67.85;102175.31;5099881;27;45297;-75
2022/02/22 04:43:35;;;;;;;;;22.25;7.75;;;;;9.27;67.80;102183.34;5099818;27;45122;-75
2022/02/22 04:46:00;;;;;;;;;25.75;12.25;;;;;9.26;67.73;102185.09;5099461;27;45369;-75
2022/02/22 04:48:26;;;;;;;;;18.75;8.25;;;;;9.23;67.63;102184.09;5099517;27;47044;-75
2022/02/22 04:50:51;;;;;;;;;8.75;4.50;;;;;9.19;67.94;102186.63;5099816;27;45293;-75
2022/02/22 04:53:17;;;;;;;;;19.00;6.00;;;;;9.18;67.75;102173.38;5099513;27;45420;-76
2022/02/22 04:55:42;;;;;;;;;9.50;6.50;;;;;9.15;67.81;102182.06;5099623;27;45282;-76
2022/02/22 04:58:07;;;;;;;;;14.75;6.00;;;;;9.10;67.85;102180.09;5099302;27;46563;-76
2022/02/22 05:00:33;;;;;;;;;16.25;7.00;;;;;9.10;67.74;102180.97;5099347;27;45410;-76
2022/02/22 05:02:58;;;;;;;;;12.67;4.67;;;;;9.08;67.71;102190.56;5099862;27;45307;-75
2022/02/22 05:05:24;;;;;;;;;17.75;7.75;;;;;9.03;67.67;102189.50;5099711;27;45328;-75
2022/02/22 05:07:49;;;;;;;;;13.25;5.75;;;;;8.92;67.90;102190.81;5096244;27;52784;-75
2022/02/22 05:10:15;;;;;;;;;16.75;7.25;;;;;8.98;67.83;102195.44;5060779;28;47933;-76
2022/02/22 05:12:40;;;;;;;;;23.25;7.00;;;;;8.91;68.20;102187.28;5085638;27;45300;-76
2022/02/22 05:15:06;;;;;;;;;17.33;7.00;;;;;8.97;67.75;102191.91;5099294;27;53129;-76
2022/02/22 05:17:32;;;;;;;;;12.00;5.50;;;;;8.95;67.87;102180.41;5096705;27;46107;-76
2022/02/22 05:19:58;;;;;;;;;10.50;4.25;;;;;9.05;68.01;102195.72;5079901;27;45502;-76
2022/02/22 05:22:23;;;;;;;;;22.00;6.75;;;;;9.10;67.94;102198.53;5099221;27;45786;-75
2022/02/22 05:24:48;;;;;;;;;8.50;7.00;;;;;9.12;67.73;102191.59;5090608;27;45503;-75
2022/02/22 05:27:14;;;;;;;;;17.75;8.25;;;;;9.15;67.76;102191.69;5060740;28;46469;-76
2022/02/22 05:29:39;;;;;;;;;10.25;5.75;;;;;9.19;67.73;102189.25;5078667;28;45333;-75
2022/02/22 05:32:05;;;;;;;;;14.00;5.50;;;;;9.22;67.72;102183.22;5078592;28;45861;-75
2022/02/22 05:34:34;;;;;;;;;15.33;4.67;;;;;9.24;67.73;102168.34;5080382;27;45464;-75
2022/02/22 05:36:59;;;;;;;;;16.00;6.50;;;;;9.30;67.27;102181.75;5065148;28;46639;-76
2022/02/22 05:39:25;;;;;;;;;11.25;8.00;;;;;9.32;67.25;102173.88;5078411;28;45337;-75
2022/02/22 05:41:50;;;;;;;;;16.50;6.00;;;;;9.32;67.38;102180.09;5078293;28;46607;-76
2022/02/22 05:44:15;;;;;;;;;17.25;8.00;;;;;9.32;67.17;102181.81;5078809;28;45350;-76
2022/02/22 05:46:41;;;;;;;;;23.75;6.00;;;;;9.35;67.29;102185.47;5078069;28;47344;-75
2022/02/22 05:49:06;;;;;;;;;12.25;6.00;;;;;9.36;67.32;102189.00;5060209;28;45351;-76
2022/02/22 05:51:32;;;;;;;;;18.50;8.00;;;;;9.38;67.50;102188.22;5078586;28;45963;-75
2022/02/22 05:53:57;;;;;;;;;11.50;4.50;;;;;9.40;67.31;102186.53;5078268;28;45516;-76
2022/02/22 05:56:22;;;;;;;;;13.67;6.00;;;;;9.39;67.46;102176.84;5077936;28;51660;-75
2022/02/22 05:58:48;;;;;;;;;17.67;7.67;;;;;9.39;67.32;102170.66;5078097;28;48557;-76
2022/02/22 06:01:13;;;;;;;;;21.50;8.75;;;;;9.44;67.35;102171.75;5078091;28;45906;-76
2022/02/22 06:03:39;;;;;;;;;13.00;6.00;;;;;9.44;67.23;102167.34;5078381;28;45395;-75
2022/02/22 06:06:04;;;;;;;;;13.50;8.25;;;;;9.47;67.20;102168.31;5079630;27;47254;-75
2022/02/22 06:08:30;;;;;;;;;13.00;6.50;;;;;9.50;67.15;102168.44;5091380;27;45477;-75
2022/02/22 06:10:55;;;;;;;;;16.75;3.75;;;;;9.43;67.34;102152.38;5078024;28;45377;-76
2022/02/22 06:13:21;;;;;;;;;10.67;4.67;;;;;9.43;66.91;102164.69;5090252;27;45260;-76
2022/02/22 06:15:46;;;;;;;;;14.50;7.75;;;;;9.45;67.20;102163.88;5098244;27;46642;-76
2022/02/22 06:18:12;;;;;;;;;13.00;5.00;;;;;9.42;67.38;102166.38;5090108;27;45408;-76
2022/02/22 06:20:39;;;;;;;;;17.00;6.00;;;;;9.41;67.15;102159.31;5084483;27;45480;-76
2022/02/22 06:23:05;;;;;;;;;17.50;7.00;;;;;9.42;67.31;102168.13;5098323;27;45270;-76
2022/02/22 06:25:31;;;;;;;;;11.67;8.00;;;;;9.42;67.21;102161.09;5083602;27;46533;-76
2022/02/22 06:27:56;;;;;;;;;12.00;6.00;;;;;9.34;67.16;102138.88;5077947;28;45433;-76
2022/02/22 06:30:22;;;;;;;;;18.00;8.25;;;;;9.42;67.37;102160.22;5077587;28;45307;-76
2022/02/22 06:32:49;;;;;;;;;16.00;6.00;;;;;9.47;67.18;102163.91;5077756;28;45493;-76
2022/02/22 06:35:15;;;;;;;;;19.50;8.75;;;;;9.44;67.53;102164.72;5084443;27;46950;-76
2022/02/22 06:37:40;;;;;;;;;16.50;6.00;;;;;9.47;67.36;102163.03;5078081;28;45585;-76
2022/02/22 06:40:06;;;;;;;;;14.00;7.00;;;;;9.45;67.43;102165.63;5077460;28;45497;-76
2022/02/22 06:42:36;;;;;;;;;12.67;6.00;;;;;9.51;67.41;102168.47;5077417;28;45506;-76
2022/02/22 06:45:02;;;;;;;;;14.50;6.00;;;;;9.55;67.60;102170.38;5077250;28;46192;-77
2022/02/22 06:47:27;;;;;;;;;13.75;5.00;;;;;9.58;67.21;102169.59;5077370;28;45262;-76
2022/02/22 06:49:53;;;;;;;;;15.00;6.00;;;;;9.58;67.42;102172.22;5077366;28;45204;-76
2022/02/22 06:52:18;;;;;;;;;14.75;6.50;;;;;9.66;67.42;102181.31;5077572;28;45434;-76
2022/02/22 06:54:45;;;;;;;;;14.00;8.25;;;;;9.68;67.40;102169.97;5077076;28;46614;-76
2022/02/22 06:57:11;;;;;;;;;24.00;11.00;;;;;9.69;67.41;102165.59;5077541;28;45489;-76
2022/02/22 06:59:36;;;;;;;;;17.25;10.25;;;;;9.73;67.34;102174.53;5076619;28;46627;-76
2022/02/22 07:02:02;;;;;;;;;16.25;6.75;;;;;9.80;67.02;102173.88;5077425;28;45463;-76
2022/02/22 07:04:27;;;;;;;;;12.67;4.67;;;;;9.73;67.00;102156.97;5076968;28;47571;-76
2022/02/22 07:06:53;;;;;;;;;15.25;7.00;;;;;9.84;67.04;102176.69;5084296;27;45351;-76
2022/02/22 07:09:18;;;;;;;;;16.50;7.50;;;;;9.83;67.32;102158.19;5083688;27;45288;-75
2022/02/22 07:11:44;;;;;;;;;12.00;6.00;;;;;9.87;67.16;102163.63;5079564;27;45234;-75
2022/02/22 07:14:10;;;;;;;;;20.67;8.00;;;;;9.93;67.24;102162.94;5093817;27;47376;-76
2022/02/22 07:16:35;;;;;;;;;16.33;7.00;;;;;9.92;67.32;102161.16;5097650;27;45336;-76
2022/02/22 07:19:01;;;;;;;;;22.67;8.00;;;;;9.98;67.05;102169.28;5096575;27;45334;-76
2022/02/22 07:21:26;;;;;;;;;18.33;6.00;;;;;9.99;67.22;102171.06;5079210;27;45405;-76
2022/02/22 07:23:52;;;;;;;;;18.00;7.67;;;;;10.02;67.29;102167.66;5096760;27;45476;-76
2022/02/22 07:26:17;;;;;;;;;17.67;7.00;;;;;10.06;66.85;102166.88;5077108;28;45425;-75
2022/02/22 07:28:43;;;;;;;;;17.33;7.33;;;;;10.05;66.94;102151.91;5076598;28;46731;-75
2022/02/22 07:31:09;;;;;;;;;18.00;4.67;;;;;10.11;66.93;102167.94;5077458;28;45451;-75
2022/02/22 07:33:34;;;;;;;;;11.00;8.00;;;;;10.10;66.45;102171.44;5058692;28;47612;-75
2022/02/22 07:36:00;;;;;;;;;21.50;7.00;;;;;10.11;66.43;102175.88;5083702;27;45335;-76
2022/02/22 07:38:25;;;;;;;;;18.00;8.25;;;;;10.13;66.78;102179.47;5076638;28;48008;-76
2022/02/22 07:40:51;;;;;;;;;10.00;4.67;;;;;10.14;66.68;102171.59;5076875;28;45326;-75
2022/02/22 07:43:16;;;;;;;;;15.33;6.00;;;;;10.12;66.69;102170.66;5076567;28;46990;-75
2022/02/22 07:45:41;;;;;;;;;19.00;7.33;;;;;10.18;66.40;102168.22;5076663;28;45282;-76
2022/02/22 07:48:07;;;;;;;;;8.00;6.00;;;;;10.19;66.53;102179.69;5076747;28;45379;-75
2022/02/22 07:50:32;;;;;;;;;13.50;5.00;;;;;10.23;66.51;102163.09;5058653;28;45439;-76
2022/02/22 07:52:58;;;;;;;;;15.33;9.00;;;;;10.26;66.52;102165.88;5076342;28;46377;-76
2022/02/22 07:55:23;;;;;;;;;19.33;7.00;;;;;10.23;66.34;102158.75;5076809;28;45414;-76
2022/02/22 07:57:49;;;;;;;;;18.33;8.00;;;;;10.31;66.18;102169.56;5076512;28;45528;-76
2022/02/22 08:00:14;;;;;;;;;10.33;7.00;;;;;10.34;66.47;102163.50;5076848;28;45471;-75
2022/02/22 08:02:40;;;;;;;;;16.00;6.33;;;;;10.38;66.78;102154.81;5076202;27;47550;-75
2022/02/22 08:05:06;;;;;;;;;15.00;6.00;;;;;10.39;66.42;102156.63;5076568;28;47601;-75
2022/02/22 08:07:35;;;;;;;;;14.00;7.00;;;;;10.45;66.73;102160.38;5090603;27;45489;-76
2022/02/22 08:10:01;;;;;;;;;18.00;5.33;;;;;10.42;66.34;102160.25;5077081;27;45204;-76
2022/02/22 08:12:27;;;;;;;;;11.33;7.00;;;;;10.47;66.47;102161.31;5066564;27;47823;-76
2022/02/22 08:14:52;;;;;;;;;14.67;6.67;;;;;10.46;66.44;102153.34;5100023;27;50190;-76
2022/02/22 08:17:17;;;;;;;;;23.33;7.67;;;;;10.54;66.63;102145.66;5100044;27;45294;-77
2022/02/22 08:19:43;;;;;;;;;23.00;7.75;;;;;10.57;66.24;102151.94;5079886;27;45648;-76
2022/02/22 08:22:08;;;;;;;;;16.33;7.00;;;;;10.60;66.32;102146.75;5080605;27;46127;-76
2022/02/22 08:24:33;;;;;;;;;13.33;7.67;;;;;10.62;66.35;102154.72;5092983;27;50987;-76
2022/02/22 08:27:00;;;;;;;;;13.00;7.00;;;;;10.60;66.28;102145.84;5080061;28;45303;-75
2022/02/22 08:29:25;;;;;;;;;10.00;5.67;;;;;10.63;66.47;102156.50;5086730;27;45441;-76
2022/02/22 08:31:51;;;;;;;;;11.33;5.67;;;;;10.63;66.46;102159.16;5100019;27;47622;-75
2022/02/22 08:34:17;;;;;;;;;10.67;5.33;;;;;10.64;66.30;102158.31;5099987;27;45317;-76
2022/02/22 08:36:42;;;;;;;;;13.00;8.33;;;;;10.67;66.29;102163.69;5086463;27;45360;-75
2022/02/22 08:39:08;;;;;;;;;11.33;3.67;;;;;10.67;66.28;102154.03;5079857;28;45546;-76
2022/02/22 08:41:33;;;;;;;;;30.33;7.00;;;;;10.72;66.25;102154.19;5079441;28;45300;-76
2022/02/22 08:44:01;;;;;;;;;17.33;5.33;;;;;10.77;66.43;102152.56;5078990;28;45303;-75
2022/02/22 08:46:26;;;;;;;;;14.00;7.00;;;;;10.81;66.35;102140.34;5079042;28;45725;-76
2022/02/22 08:48:51;;;;;;;;;12.00;8.00;;;;;10.86;66.43;102144.91;5079500;28;45614;-76
2022/02/22 08:51:17;;;;;;;;;21.33;7.00;;;;;10.90;66.37;102140.63;5079100;28;47503;-76
2022/02/22 08:53:42;;;;;;;;;15.00;7.00;;;;;10.92;66.01;102139.84;5079241;28;45271;-75
2022/02/22 08:56:08;;;;;;;;;16.00;8.33;;;;;10.97;66.42;102153.16;5079263;28;45263;-76
2022/02/22 08:58:33;;;;;;;;;19.33;9.00;;;;;11.01;66.00;102149.78;5079360;27;45610;-76
2022/02/22 09:00:59;;;;;;;;;11.00;7.00;;;;;11.02;66.38;102144.56;5060938;27;46089;-76
2022/02/22 09:03:25;;;;;;;;;19.67;6.33;;;;;11.00;66.38;102148.00;5079122;28;45441;-76
2022/02/22 09:05:50;;;;;;;;;19.00;7.00;;;;;11.04;66.41;102135.78;5079501;27;45333;-76
2022/02/22 09:08:16;;;;;;;;;17.00;7.67;;;;;11.07;66.91;102141.13;5094225;27;45199;-75
2022/02/22 09:10:44;;;;;;;;;9.33;5.33;;;;;11.06;67.04;102120.84;5078963;28;47440;-75
2022/02/22 09:13:10;;;;;;;;;8.00;4.67;;;;;11.12;66.76;102115.72;5089615;27;45374;-76
2022/02/22 09:15:37;;;;;;;;;15.00;8.00;;;;;11.11;66.88;102108.66;5081226;27;45300;-76
2022/02/22 09:18:02;;;;;;;;;11.00;7.00;;;;;11.18;66.99;102113.25;5092564;27;45537;-76
2022/02/22 09:20:27;;;;;;;;;11.00;6.33;;;;;11.23;66.88;102120.47;5084108;27;47206;-76
2022/02/22 09:22:53;;;;;;;;;11.00;5.00;;;;;11.32;66.77;102124.25;5080467;27;45493;-76
2022/02/22 09:25:19;;;;;;;;;8.33;3.33;;;;;11.35;66.88;102122.59;5086230;27;45488;-75
2022/02/22 09:27:44;;;;;;;;;15.67;7.00;;;;;11.38;66.56;102114.75;5079218;28;45492;-77
2022/02/22 09:30:11;;;;;;;;;11.00;4.67;;;;;11.40;66.85;102122.69;5078633;28;46616;-77
2022/02/22 09:32:37;;;;;;;;;15.33;5.00;;;;;11.40;66.78;102109.47;5078516;28;45243;-77
2022/02/22 09:35:02;;;;;;;;;11.33;5.00;;;;;11.44;66.72;102104.31;5084893;27;46072;-76
2022/02/22 09:37:28;;;;;;;;;10.00;5.00;;;;;11.52;66.75;102110.75;5079101;27;45171;-76
2022/02/22 09:39:53;;;;;;;;;20.67;9.00;;;;;11.58;66.83;102114.41;5078369;28;47277;-76
2022/02/22 09:42:19;;;;;;;;;14.33;5.67;;;;;11.62;66.74;102113.66;5077911;28;50981;-76
2022/02/22 09:44:44;;;;;;;;;15.33;5.00;;;;;11.64;66.62;102099.59;5078553;28;45438;-76
2022/02/22 09:47:10;;;;;;;;;11.67;3.00;;;;;11.71;66.49;102092.69;5078305;28;45329;-76
2022/02/22 09:49:36;;;;;;;;;23.00;5.00;;;;;11.77;66.75;102090.22;5078313;28;46692;-76
2022/02/22 09:52:01;;;;;;;;;10.00;7.00;;;;;11.87;66.71;102086.09;5078285;28;45384;-76
2022/02/22 09:54:27;;;;;;;;;11.67;6.33;;;;;11.96;66.55;102067.81;5078301;28;45383;-76
2022/02/22 09:56:52;;;;;;;;;5.00;4.00;;;;;12.10;66.27;102062.88;5060358;28;45573;-76
2022/02/22 09:59:21;;;;;;;;;15.67;4.33;;;;;12.19;66.19;102065.72;5059798;28;47530;-76
2022/02/22 10:01:50;;;;;;;;;10.33;3.00;;;;;12.30;66.11;102061.56;5078171;28;45445;-75
2022/02/22 10:04:16;;;;;;;;;6.33;2.67;;;;;12.41;66.11;102048.56;5078233;27;45393;-76
2022/02/22 10:06:41;;;;;;;;;10.67;5.33;;;;;12.44;65.84;102041.59;5085001;27;49983;-76
2022/02/22 10:09:07;;;;;;;;;9.67;4.33;;;;;12.38;65.96;102043.22;5086135;27;46457;-76
2022/02/22 10:11:46;;;;;;;;;11.67;4.33;;;;;12.45;65.78;102059.28;5078608;27;45373;-76
2022/02/22 10:14:22;;;;;;;;;10.67;4.00;;;;;12.54;65.81;102054.19;5095171;27;45267;-76
2022/02/22 10:16:48;;;;;;;;;7.67;3.00;;;;;12.59;65.56;102062.25;5098531;27;45421;-77
2022/02/22 10:19:17;;;;;;;;;12.00;4.33;;;;;12.54;65.69;102066.56;5081441;27;46647;-77
2022/02/22 10:21:44;;;;;;;;;5.00;2.67;;;;;12.46;65.78;102054.88;5093694;27;45336;-76
2022/02/22 10:24:10;;;;;;;;;10.67;3.00;;;;;12.49;65.93;102066.44;5097213;27;45329;-76
2022/02/22 10:26:36;;;;;;;;;4.67;2.00;;;;;12.57;65.76;102075.47;5098573;27;45446;-76
2022/02/22 10:29:21;;;;;;;;;3.33;3.00;;;;;12.45;65.95;102074.28;5098191;27;47250;-76
2022/02/22 10:31:47;;;;;;;;;11.00;3.67;;;;;12.45;66.38;102079.59;5098321;27;45464;-76
2022/02/22 10:34:12;;;;;;;;;7.33;3.67;;;;;12.46;66.36;102076.06;5097139;27;45228;-76
2022/02/22 10:36:42;;;;;;;;;8.33;3.33;;;;;12.48;66.46;102096.44;5066962;28;45487;-76
2022/02/22 10:39:10;;;;;;;;;5.00;3.00;;;;;12.41;66.64;102083.00;5063039;28;46734;-75
2022/02/22 10:41:40;;;;;;;;;5.67;3.00;;;;;12.38;66.72;102091.78;5091644;27;45324;-76
2022/02/22 10:44:06;;;;;;;;;12.33;3.00;;;;;12.34;66.41;102097.88;5097890;27;45460;-76
2022/02/22 10:46:32;;;;;;;;;4.33;3.00;;;;;12.32;66.95;102097.84;5097531;27;45309;-76
2022/02/22 10:49:04;;;;;;;;;9.33;3.00;;;;;12.28;66.82;102087.13;5097690;27;47062;-75
2022/02/22 10:51:38;;;;;;;;;5.33;2.67;;;;;12.22;66.92;102079.03;5097593;27;45422;-76
2022/02/22 10:54:05;;;;;;;;;5.00;2.00;;;;;12.24;66.91;102090.56;5097938;27;45259;-76
2022/02/22 10:56:31;;;;;;;;;3.67;2.33;;;;;12.21;66.93;102086.09;5097725;27;45448;-76
2022/02/22 10:58:57;;;;;;;;;6.67;3.00;;;;;12.20;67.28;102081.66;5079533;27;48800;-75
2022/02/22 11:01:23;;;;;;;;;7.33;3.00;;;;;12.23;67.61;102099.38;5097786;27;45419;-76
2022/02/22 11:03:49;;;;;;;;;4.00;3.00;;;;;12.24;67.38;102098.50;5097890;27;45291;-76
2022/02/22 11:06:15;;;;;;;;;8.33;3.00;;;;;12.24;67.32;102098.50;5097531;27;45318;-75
2022/02/22 11:08:45;;;;;;;;;9.00;3.00;;;;;12.25;67.41;102087.97;5088895;27;46349;-77
2022/02/22 11:11:13;;;;;;;;;8.00;4.00;;;;;12.29;67.58;102073.91;5059474;28;45515;-75
2022/02/22 11:13:39;;;;;;;;;10.67;4.00;;;;;12.29;67.52;102060.69;5073722;27;45320;-75
2022/02/22 11:16:12;;;;;;;;;8.00;2.00;;;;;12.40;67.54;102060.03;5097595;27;45290;-75
2022/02/22 11:18:51;;;;;;;;;5.67;3.00;;;;;12.49;67.55;102055.84;5085415;27;46766;-75